Time;durP1;ratioP1;P1;durP2;ratioP2;P2;SDS_P1;SDS_P2;PMS_P1;PMS_P2;Temp;Humidity;BMP_temperature;BMP_pressure;BME280_temperature;BME280_humidity;BME280_pressure;Samples;Min_cycle;Max_cycle;Signal;HPM_P1;HPM_P2
2023/07/16 00:01:58;;;;;;;8.88;2.37;;;17.10;99.90;;;;;;7368410;32;20171;-55
2023/07/16 00:06:00;;;;;;;5.07;2.28;;;17.10;99.90;;;;;;7379166;32;20120;-55
2023/07/16 00:10:02;;;;;;;6.97;2.30;;;17.20;99.90;;;;;;7378314;32;20539;-55
2023/07/16 00:14:04;;;;;;;5.93;1.90;;;17.20;99.90;;;;;;7377968;32;20110;-55
2023/07/16 00:18:06;;;;;;;7.72;2.30;;;17.20;99.90;;;;;;7372577;32;20125;-55
2023/07/16 00:22:08;;;;;;;5.20;2.20;;;17.20;99.90;;;;;;7384427;32;20559;-55
2023/07/16 00:26:10;;;;;;;6.22;2.05;;;17.20;99.90;;;;;;7378053;32;20107;-55
2023/07/16 00:30:12;;;;;;;6.50;2.40;;;17.30;99.90;;;;;;7360615;32;20477;-55
2023/07/16 00:34:14;;;;;;;5.95;1.83;;;17.30;99.90;;;;;;7371301;32;20137;-55
2023/07/16 00:38:19;;;;;;;5.22;2.30;;;17.30;99.90;;;;;;7377676;32;20133;-57
2023/07/16 00:42:21;;;;;;;5.78;2.08;;;17.30;99.90;;;;;;7383226;32;20134;-57
2023/07/16 00:46:23;;;;;;;4.22;2.15;;;17.20;99.90;;;;;;7369565;32;20198;-55
2023/07/16 00:50:25;;;;;;;4.30;1.87;;;17.20;99.90;;;;;;7371436;32;20472;-55
2023/07/16 00:54:29;;;;;;;5.35;2.12;;;17.10;99.90;;;;;;7379671;32;20132;-55
2023/07/16 00:58:31;;;;;;;6.47;1.80;;;17.10;99.90;;;;;;7378385;32;20136;-56
2023/07/16 01:02:33;;;;;;;7.45;1.92;;;17.00;99.90;;;;;;7383698;32;20305;-55
2023/07/16 01:06:39;;;;;;;7.68;2.15;;;16.90;99.90;;;;;;7383945;32;20188;-55
2023/07/16 01:10:42;;;;;;;7.85;2.47;;;16.90;99.90;;;;;;7364397;32;20170;-55
2023/07/16 01:14:44;;;;;;;4.90;1.90;;;16.90;99.90;;;;;;7383585;32;20102;-55
2023/07/16 01:18:45;;;;;;;4.87;2.40;;;16.70;99.90;;;;;;7377002;32;20123;-55
2023/07/16 01:23:35;;;;;;;7.37;2.33;;;16.60;99.90;;;;;;7383148;32;20111;-55
2023/07/16 01:28:14;;;;;;;4.97;2.12;;;16.60;99.90;;;;;;7322706;32;20676;-55
2023/07/16 01:32:17;;;;;;;7.85;2.60;;;16.50;99.90;;;;;;7383060;32;20524;-55
2023/07/16 01:36:20;;;;;;;6.37;2.50;;;16.60;99.90;;;;;;7383004;32;20451;-56
2023/07/16 01:40:22;;;;;;;5.97;3.05;;;16.60;99.90;;;;;;7375859;32;20224;-56
2023/07/16 01:44:24;;;;;;;6.40;2.92;;;16.60;99.90;;;;;;7372912;32;20102;-55
2023/07/16 01:48:35;;;;;;;6.03;2.90;;;16.60;99.90;;;;;;7382902;32;20102;-55
2023/07/16 01:52:37;;;;;;;5.05;3.28;;;16.70;99.90;;;;;;7373064;32;20126;-55
2023/07/16 01:56:39;;;;;;;8.07;3.30;;;16.70;99.90;;;;;;7369045;32;20258;-55
2023/07/16 02:00:41;;;;;;;4.97;2.80;;;16.70;99.90;;;;;;7378263;32;20099;-56
2023/07/16 02:04:43;;;;;;;5.15;2.53;;;16.70;99.90;;;;;;7382173;32;20099;-55
2023/07/16 02:08:44;;;;;;;4.25;2.42;;;16.70;99.90;;;;;;7381689;32;20194;-55
2023/07/16 02:12:46;;;;;;;6.90;2.42;;;16.70;99.90;;;;;;7382468;32;20099;-55
2023/07/16 02:16:48;;;;;;;5.70;1.98;;;16.60;99.90;;;;;;7381916;32;20559;-55
2023/07/16 02:20:50;;;;;;;8.43;1.62;;;16.60;99.90;;;;;;7371529;32;20132;-56
2023/07/16 02:24:52;;;;;;;5.28;1.87;;;16.70;99.90;;;;;;7357388;32;20111;-55
2023/07/16 02:28:54;;;;;;;5.28;1.87;;;16.70;99.90;;;;;;7374765;32;20637;-55
2023/07/16 02:32:56;;;;;;;3.90;1.95;;;16.60;99.90;;;;;;7381433;32;20160;-56
2023/07/16 02:36:58;;;;;;;9.02;2.08;;;16.60;99.90;;;;;;7371148;32;20129;-56
2023/07/16 02:40:59;;;;;;;7.87;1.80;;;16.60;99.90;;;;;;7366279;32;20219;-55
2023/07/16 02:45:01;;;;;;;5.55;2.10;;;16.60;99.90;;;;;;7377442;32;20146;-55
2023/07/16 02:49:04;;;;;;;6.07;1.90;;;16.50;99.90;;;;;;7368966;32;20442;-55
2023/07/16 02:53:07;;;;;;;6.65;1.77;;;16.50;99.90;;;;;;7371037;32;20103;-55
2023/07/16 02:57:09;;;;;;;6.40;2.10;;;16.50;99.90;;;;;;7377107;32;20504;-56
2023/07/16 03:01:12;;;;;;;7.93;1.75;;;16.40;99.90;;;;;;7367353;32;20129;-55
2023/07/16 03:05:14;;;;;;;7.55;1.73;;;16.40;99.90;;;;;;7375031;32;20133;-55
2023/07/16 03:09:16;;;;;;;5.87;1.92;;;16.40;99.90;;;;;;7369001;32;20537;-55
2023/07/16 03:13:19;;;;;;;7.62;1.92;;;16.50;99.90;;;;;;7361870;32;20129;-55
2023/07/16 03:17:22;;;;;;;8.77;1.73;;;16.40;99.90;;;;;;7367759;32;20257;-55
2023/07/16 03:21:24;;;;;;;10.15;1.80;;;16.30;99.90;;;;;;7359228;32;20640;-55
2023/07/16 03:25:25;;;;;;;7.35;1.95;;;16.30;99.90;;;;;;7360643;32;20121;-56
2023/07/16 03:29:27;;;;;;;5.15;1.50;;;16.30;99.90;;;;;;7368286;32;20275;-55
2023/07/16 03:33:29;;;;;;;5.05;1.92;;;16.30;99.90;;;;;;7379828;32;20160;-55
2023/07/16 03:37:31;;;;;;;6.78;2.40;;;16.30;99.90;;;;;;7371254;32;20099;-55
2023/07/16 03:41:33;;;;;;;9.60;1.70;;;16.20;99.90;;;;;;7371549;32;20206;-55
2023/07/16 03:45:34;;;;;;;6.53;2.00;;;16.10;99.90;;;;;;7371638;32;20198;-55
2023/07/16 03:49:36;;;;;;;6.72;2.12;;;16.20;99.90;;;;;;7368993;32;20166;-56
2023/07/16 03:53:38;;;;;;;10.23;2.10;;;16.20;99.90;;;;;;7369767;32;20103;-55
2023/07/16 03:57:40;;;;;;;9.48;2.20;;;16.10;99.90;;;;;;7366196;32;20117;-55
2023/07/16 04:01:42;;;;;;;4.78;1.75;;;16.10;99.90;;;;;;7377006;32;20107;-55
2023/07/16 04:05:44;;;;;;;6.12;2.08;;;16.20;99.90;;;;;;7369934;32;20103;-55
2023/07/16 04:09:46;;;;;;;8.05;1.87;;;16.20;99.90;;;;;;7379568;32;20293;-55
2023/07/16 04:13:48;;;;;;;9.50;1.90;;;16.10;99.90;;;;;;7381319;32;20118;-55
2023/07/16 04:17:50;;;;;;;7.43;2.28;;;16.10;99.90;;;;;;7372880;32;20121;-55
2023/07/16 04:21:52;;;;;;;9.18;2.78;;;16.10;99.90;;;;;;7383254;32;20429;-55
2023/07/16 04:25:55;;;;;;;5.18;2.08;;;16.10;99.90;;;;;;7369170;32;20103;-55
2023/07/16 04:29:57;;;;;;;4.37;2.00;;;16.10;99.90;;;;;;7377761;32;20098;-55
2023/07/16 04:33:59;;;;;;;5.60;2.30;;;16.10;99.90;;;;;;7378253;32;20532;-55
2023/07/16 04:38:00;;;;;;;6.87;2.15;;;16.20;99.90;;;;;;7371579;32;20099;-55
2023/07/16 04:42:03;;;;;;;6.40;2.08;;;16.30;99.90;;;;;;7369472;32;20205;-55
2023/07/16 04:46:04;;;;;;;8.40;2.30;;;16.50;99.90;;;;;;7372005;32;20135;-55
2023/07/16 04:50:06;;;;;;;9.82;2.35;;;16.60;99.90;;;;;;7369557;32;20146;-55
2023/07/16 04:54:08;;;;;;;7.47;2.05;;;16.80;99.90;;;;;;7377666;32;20134;-55
2023/07/16 04:58:13;;;;;;;6.72;2.10;;;17.00;99.90;;;;;;7367731;32;20128;-56
2023/07/16 05:02:17;;;;;;;6.68;2.12;;;17.20;99.90;;;;;;7381775;32;20515;-55
2023/07/16 05:06:18;;;;;;;8.27;2.15;;;17.50;99.90;;;;;;7364226;32;20178;-56
2023/07/16 05:10:20;;;;;;;5.00;2.03;;;17.70;99.90;;;;;;7382474;32;20115;-56
2023/07/16 05:14:22;;;;;;;5.55;2.08;;;18.00;99.90;;;;;;7380524;32;20569;-56
2023/07/16 05:18:24;;;;;;;9.48;2.35;;;18.30;99.90;;;;;;7378437;32;20660;-55
2023/07/16 05:22:26;;;;;;;8.68;2.22;;;18.40;99.90;;;;;;7370538;32;20110;-56
2023/07/16 05:26:28;;;;;;;8.38;2.12;;;18.50;99.90;;;;;;7366293;32;20119;-56
2023/07/16 05:30:30;;;;;;;6.57;2.08;;;18.60;99.90;;;;;;7353116;32;20169;-56
2023/07/16 05:34:32;;;;;;;7.20;2.42;;;18.80;99.90;;;;;;7381247;32;20099;-55
2023/07/16 05:38:34;;;;;;;4.40;2.42;;;19.00;99.90;;;;;;7375594;32;20679;-56
2023/07/16 05:42:36;;;;;;;11.70;2.60;;;19.00;99.90;;;;;;7359710;32;20141;-55
2023/07/16 05:46:38;;;;;;;7.20;2.67;;;19.20;99.90;;;;;;7367339;32;20095;-56
2023/07/16 05:50:43;;;;;;;7.80;2.50;;;19.30;99.90;;;;;;7376796;32;20102;-56
2023/07/16 05:54:45;;;;;;;6.50;2.42;;;19.60;99.90;;;;;;7380109;32;20233;-56
2023/07/16 05:58:46;;;;;;;11.02;2.92;;;19.80;99.90;;;;;;7372903;32;20119;-56
2023/07/16 06:02:48;;;;;;;6.20;2.70;;;19.90;99.90;;;;;;7379452;32;20592;-55
2023/07/16 06:06:50;;;;;;;7.03;2.87;;;19.90;99.90;;;;;;7370741;32;20131;-55
2023/07/16 06:10:53;;;;;;;8.77;2.95;;;20.10;99.90;;;;;;7374448;32;20241;-56
2023/07/16 06:14:55;;;;;;;9.95;3.22;;;20.30;99.90;;;;;;7372058;32;20520;-56
2023/07/16 06:18:57;;;;;;;6.28;3.10;;;20.70;99.90;;;;;;7369464;32;20788;-55
2023/07/16 06:22:59;;;;;;;9.82;3.62;;;20.60;99.90;;;;;;7377786;32;20133;-55
2023/07/16 06:27:01;;;;;;;8.93;3.35;;;20.90;99.90;;;;;;7377634;32;20532;-55
2023/07/16 06:31:03;;;;;;;7.45;3.37;;;20.80;99.90;;;;;;7369625;32;20138;-55
2023/07/16 06:35:05;;;;;;;8.75;3.45;;;21.10;99.90;;;;;;7371530;32;20257;-57
2023/07/16 06:39:07;;;;;;;7.32;3.58;;;20.70;99.90;;;;;;7378300;32;20107;-56
2023/07/16 06:43:08;;;;;;;8.38;3.10;;;20.90;99.90;;;;;;7377413;32;20433;-56
2023/07/16 06:47:10;;;;;;;9.10;3.45;;;21.60;99.90;;;;;;7370602;32;20133;-56
2023/07/16 06:51:12;;;;;;;8.68;3.30;;;22.10;99.90;;;;;;7376020;32;20138;-56
2023/07/16 06:55:14;;;;;;;5.53;3.58;;;22.50;99.90;;;;;;7378093;32;20699;-56
2023/07/16 06:59:16;;;;;;;9.18;3.58;;;22.50;99.90;;;;;;7365614;32;20718;-56
2023/07/16 07:03:18;;;;;;;8.60;3.75;;;22.60;99.90;;;;;;7374868;32;20125;-57
2023/07/16 07:07:20;;;;;;;11.07;3.78;;;22.40;99.90;;;;;;7372499;32;20766;-56
2023/07/16 07:11:22;;;;;;;8.38;3.75;;;22.50;99.90;;;;;;7375529;32;20124;-56
2023/07/16 07:15:23;;;;;;;9.23;3.72;;;22.60;99.90;;;;;;7378393;32;20430;-56
2023/07/16 07:19:25;;;;;;;8.50;3.70;;;22.60;99.90;;;;;;7381368;32;20111;-56
2023/07/16 07:23:27;;;;;;;9.43;4.05;;;22.60;99.90;;;;;;7381255;32;20559;-56
2023/07/16 07:27:29;;;;;;;8.90;4.12;;;22.10;99.90;;;;;;7380387;32;20308;-57
2023/07/16 07:31:31;;;;;;;7.72;3.47;;;22.20;99.90;;;;;;7385234;32;20457;-57
2023/07/16 07:35:33;;;;;;;9.68;4.30;;;22.30;99.90;;;;;;7385451;32;20232;-56
2023/07/16 07:39:34;;;;;;;8.55;4.00;;;22.40;99.90;;;;;;7385444;32;20130;-56
2023/07/16 07:43:36;;;;;;;9.70;4.18;;;21.70;99.90;;;;;;7382161;32;20181;-56
2023/07/16 07:47:38;;;;;;;11.75;4.53;;;21.10;99.90;;;;;;7383195;32;20440;-57
2023/07/16 07:51:40;;;;;;;8.32;4.03;;;20.80;99.90;;;;;;7385328;32;20206;-57
2023/07/16 07:55:42;;;;;;;10.07;4.12;;;20.50;99.90;;;;;;7388068;32;20143;-56
2023/07/16 07:59:44;;;;;;;12.23;4.57;;;20.60;99.90;;;;;;7374519;32;20239;-57
2023/07/16 08:03:46;;;;;;;9.70;4.53;;;20.70;99.90;;;;;;7385741;32;20261;-56
2023/07/16 08:07:48;;;;;;;7.35;3.80;;;20.60;99.90;;;;;;7378281;32;20111;-56
2023/07/16 08:11:50;;;;;;;9.02;3.95;;;20.50;99.90;;;;;;7386040;32;20124;-57
2023/07/16 08:15:51;;;;;;;11.32;4.35;;;20.80;99.90;;;;;;7384304;32;20292;-56
2023/07/16 08:19:53;;;;;;;10.98;4.62;;;20.60;99.90;;;;;;7386464;32;20556;-57
2023/07/16 08:23:55;;;;;;;8.27;4.22;;;20.90;99.90;;;;;;7383181;32;20279;-57
2023/07/16 08:27:57;;;;;;;8.07;4.05;;;20.90;99.90;;;;;;7382269;32;20130;-57
2023/07/16 08:31:59;;;;;;;10.30;4.32;;;20.90;99.90;;;;;;7374715;32;20475;-57
2023/07/16 08:36:00;;;;;;;6.85;3.83;;;20.70;99.90;;;;;;7382142;32;20110;-57
2023/07/16 08:40:03;;;;;;;8.90;3.87;;;20.60;99.90;;;;;;7381757;32;20133;-57
2023/07/16 08:44:06;;;;;;;7.10;3.62;;;20.70;99.90;;;;;;7374825;32;20158;-57
2023/07/16 08:48:08;;;;;;;8.10;3.53;;;20.80;99.90;;;;;;7381903;32;20107;-57
2023/07/16 08:52:11;;;;;;;10.30;3.55;;;21.00;99.90;;;;;;7362052;32;20151;-57
2023/07/16 08:56:12;;;;;;;8.10;3.50;;;21.00;99.90;;;;;;7382249;32;20106;-56
2023/07/16 09:00:16;;;;;;;10.23;3.78;;;21.00;99.90;;;;;;7377905;32;20794;-58
2023/07/16 09:04:18;;;;;;;9.77;4.10;;;20.80;99.90;;;;;;7371958;32;20181;-57
2023/07/16 09:08:20;;;;;;;7.12;3.50;;;20.90;99.90;;;;;;7379806;32;20141;-57
2023/07/16 09:12:24;;;;;;;6.62;3.17;;;21.00;99.90;;;;;;7377534;32;20260;-57
2023/07/16 09:16:26;;;;;;;8.63;3.45;;;21.20;99.90;;;;;;7377297;32;20099;-57
2023/07/16 09:20:30;;;;;;;10.35;3.85;;;21.50;99.90;;;;;;7378730;32;20161;-57
2023/07/16 09:24:32;;;;;;;8.52;3.15;;;21.70;99.90;;;;;;7381810;32;20436;-57
2023/07/16 09:28:34;;;;;;;8.07;3.78;;;21.60;99.90;;;;;;7380668;32;20150;-58
2023/07/16 09:32:40;;;;;;;10.45;3.83;;;21.60;99.90;;;;;;7372513;32;20206;-57
2023/07/16 09:36:42;;;;;;;9.05;3.20;;;22.10;99.90;;;;;;7373637;32;20102;-57
2023/07/16 09:40:44;;;;;;;9.50;3.62;;;22.50;99.90;;;;;;7379599;32;20556;-57
2023/07/16 09:44:47;;;;;;;11.90;3.72;;;23.20;99.90;;;;;;7377264;32;20114;-58
2023/07/16 09:48:48;;;;;;;6.85;3.12;;;23.50;99.90;;;;;;7378043;32;20134;-58
2023/07/16 09:52:51;;;;;;;9.27;3.17;;;23.80;99.90;;;;;;7381167;32;20440;-56
2023/07/16 09:56:59;;;;;;;7.30;3.40;;;24.40;99.90;;;;;;7376809;32;20273;-56
2023/07/16 10:01:02;;;;;;;9.00;3.15;;;24.80;99.90;;;;;;7372655;32;20612;-58
2023/07/16 10:05:14;;;;;;;6.60;2.87;;;23.30;99.90;;;;;;7375869;32;20103;-55
2023/07/16 10:09:50;;;;;;;5.85;2.97;;;23.10;99.90;;;;;;7375689;32;20123;-55
2023/07/16 10:13:52;;;;;;;9.93;3.40;;;23.40;99.90;;;;;;7368193;32;20133;-57
2023/07/16 10:17:56;;;;;;;7.57;3.47;;;23.30;99.90;;;;;;7379740;32;20115;-57
2023/07/16 10:21:58;;;;;;;8.40;3.08;;;23.30;99.90;;;;;;7368871;32;20142;-56
2023/07/16 10:26:05;;;;;;;8.23;3.08;;;22.90;99.90;;;;;;7374294;32;20125;-57
2023/07/16 10:30:07;;;;;;;7.22;3.03;;;22.70;99.90;;;;;;7370750;32;20158;-56
2023/07/16 10:34:09;;;;;;;9.07;3.55;;;22.80;99.90;;;;;;7374831;32;20125;-57
2023/07/16 10:38:11;;;;;;;7.07;3.47;;;22.90;99.90;;;;;;7377344;32;20795;-56
2023/07/16 10:42:18;;;;;;;7.62;3.10;;;22.70;99.90;;;;;;7378705;32;20170;-57
2023/07/16 10:46:20;;;;;;;6.87;3.10;;;22.60;99.90;;;;;;7376238;32;20133;-57
2023/07/16 10:50:22;;;;;;;9.18;3.92;;;22.50;99.90;;;;;;7375633;32;20144;-56
2023/07/16 10:54:25;;;;;;;5.55;2.80;;;22.40;99.90;;;;;;7375670;32;20132;-56
2023/07/16 10:58:26;;;;;;;6.75;3.08;;;22.40;99.90;;;;;;7378595;32;20216;-57
2023/07/16 11:02:28;;;;;;;7.80;3.10;;;22.20;99.90;;;;;;7379442;32;20110;-57
2023/07/16 11:06:30;;;;;;;11.77;3.35;;;22.00;99.90;;;;;;7377324;32;20102;-57
2023/07/16 11:10:32;;;;;;;6.55;3.37;;;22.00;99.90;;;;;;7375681;32;20111;-56
2023/07/16 11:14:34;;;;;;;13.02;3.25;;;22.00;99.90;;;;;;7378926;32;20159;-56
2023/07/16 11:18:37;;;;;;;6.93;3.53;;;22.00;99.90;;;;;;7372934;32;20220;-56
2023/07/16 11:22:39;;;;;;;10.75;3.78;;;21.90;99.90;;;;;;7379342;32;20347;-56
2023/07/16 11:26:56;;;;;;;6.45;3.10;;;22.00;99.90;;;;;;7379424;32;20103;-56
2023/07/16 11:30:58;;;;;;;9.48;3.08;;;21.90;99.90;;;;;;7369054;32;20180;-56
2023/07/16 11:35:06;;;;;;;9.63;2.90;;;22.00;99.90;;;;;;7371848;32;20137;-57
2023/07/16 11:39:10;;;;;;;17.27;3.40;;;21.90;99.90;;;;;;7379065;32;20103;-56
2023/07/16 11:43:12;;;;;;;5.82;3.00;;;21.90;99.90;;;;;;7369147;32;21734;-56
2023/07/16 11:47:14;;;;;;;8.52;2.90;;;21.90;99.90;;;;;;7373748;32;20467;-56
2023/07/16 11:51:16;;;;;;;8.02;3.50;;;22.00;99.90;;;;;;7369521;32;20106;-57
2023/07/16 11:55:18;;;;;;;8.70;3.17;;;22.00;99.90;;;;;;7372264;32;20399;-56
2023/07/16 11:59:20;;;;;;;8.50;2.97;;;22.10;99.90;;;;;;7382248;32;20512;-58
2023/07/16 12:03:21;;;;;;;11.93;3.62;;;22.20;99.90;;;;;;7379549;32;20426;-57
2023/07/16 12:07:37;;;;;;;5.95;2.92;;;22.20;99.90;;;;;;7383827;32;20127;-58
2023/07/16 12:11:39;;;;;;;8.93;3.37;;;22.30;99.90;;;;;;7376860;32;20580;-58
2023/07/16 12:15:41;;;;;;;7.57;3.15;;;22.60;99.90;;;;;;7379185;32;20179;-56
2023/07/16 12:19:43;;;;;;;9.25;2.85;;;22.60;99.90;;;;;;7377558;32;20515;-57
2023/07/16 12:23:45;;;;;;;7.50;2.87;;;22.70;99.90;;;;;;7365604;32;20488;-57
2023/07/16 12:27:47;;;;;;;10.75;2.70;;;23.30;99.90;;;;;;7375816;32;20201;-57
2023/07/16 12:31:49;;;;;;;11.68;2.87;;;23.30;99.90;;;;;;7382609;32;20130;-57
2023/07/16 12:35:50;;;;;;;7.30;2.67;;;23.40;99.90;;;;;;7376486;32;20791;-58
2023/07/16 12:39:54;;;;;;;11.05;2.75;;;23.20;99.90;;;;;;7382991;32;20432;-57
2023/07/16 12:43:56;;;;;;;6.57;2.80;;;23.40;99.90;;;;;;7376708;32;20968;-58
2023/07/16 12:47:58;;;;;;;5.90;2.80;;;23.60;99.60;;;;;;7380584;32;20134;-57
2023/07/16 12:52:00;;;;;;;5.97;3.17;;;23.70;99.90;;;;;;7382225;32;20535;-58
2023/07/16 12:56:02;;;;;;;6.35;3.08;;;23.60;99.90;;;;;;7372350;32;20188;-56
2023/07/16 13:00:05;;;;;;;7.03;2.80;;;24.10;99.90;;;;;;7375430;32;20169;-56
2023/07/16 13:04:07;;;;;;;8.00;2.97;;;24.10;99.90;;;;;;7375719;32;20264;-56
2023/07/16 13:08:09;;;;;;;6.40;2.80;;;23.90;99.20;;;;;;7369276;32;20190;-56
2023/07/16 13:12:11;;;;;;;13.85;3.65;;;23.80;99.00;;;;;;7373965;32;20250;-56
2023/07/16 13:16:13;;;;;;;6.32;2.90;;;23.80;99.20;;;;;;7377168;32;20107;-57
2023/07/16 13:20:17;;;;;;;8.35;3.45;;;23.50;99.80;;;;;;7376861;32;20274;-58
2023/07/16 13:24:18;;;;;;;5.28;2.78;;;23.20;99.90;;;;;;7379267;32;20165;-56
2023/07/16 13:28:21;;;;;;;7.28;2.92;;;23.10;99.90;;;;;;7381788;32;20128;-57
2023/07/16 13:32:23;;;;;;;5.50;2.33;;;23.20;99.90;;;;;;7380185;32;20099;-57
2023/07/16 13:36:24;;;;;;;5.37;3.08;;;23.30;99.90;;;;;;7381812;32;20107;-57
2023/07/16 13:40:26;;;;;;;7.32;2.92;;;23.20;99.90;;;;;;7371700;32;20104;-58
2023/07/16 13:44:28;;;;;;;5.07;2.97;;;22.90;99.90;;;;;;7351542;32;20094;-57
2023/07/16 13:48:30;;;;;;;7.72;3.12;;;22.90;99.90;;;;;;7375644;32;20133;-57
2023/07/16 13:52:48;;;;;;;4.50;2.87;;;23.40;99.90;;;;;;7374079;32;20481;-57
2023/07/16 13:56:50;;;;;;;10.10;3.03;;;23.30;99.90;;;;;;7380755;32;20107;-57
2023/07/16 14:00:52;;;;;;;8.73;3.50;;;23.30;99.90;;;;;;7373344;32;20129;-57
2023/07/16 14:04:54;;;;;;;9.10;3.20;;;23.20;99.90;;;;;;7376313;32;20103;-58
2023/07/16 14:08:56;;;;;;;7.05;2.72;;;23.30;99.90;;;;;;7376006;32;20168;-57
2023/07/16 14:12:58;;;;;;;6.43;3.10;;;23.50;99.90;;;;;;7375437;32;20512;-57
2023/07/16 14:17:00;;;;;;;4.62;2.65;;;23.50;99.90;;;;;;7372103;32;20103;-57
2023/07/16 14:21:02;;;;;;;8.35;2.53;;;23.50;99.90;;;;;;7372723;32;20182;-58
2023/07/16 14:25:05;;;;;;;6.40;2.22;;;23.70;99.90;;;;;;7375852;32;20566;-57
2023/07/16 14:29:07;;;;;;;6.15;2.40;;;23.70;99.90;;;;;;7365652;32;20857;-57
2023/07/16 14:33:09;;;;;;;6.00;2.35;;;23.70;99.90;;;;;;7379885;32;20206;-57
2023/07/16 14:37:10;;;;;;;6.93;2.37;;;23.70;99.80;;;;;;7379194;32;20505;-58
2023/07/16 14:41:12;;;;;;;5.20;2.70;;;23.60;99.90;;;;;;7379231;32;20159;-58
2023/07/16 14:45:14;;;;;;;6.68;2.28;;;23.50;99.40;;;;;;7372126;32;20103;-58
2023/07/16 14:49:16;;;;;;;5.47;2.33;;;23.40;99.90;;;;;;7380341;32;20513;-58
2023/07/16 14:53:18;;;;;;;6.65;2.55;;;23.80;99.90;;;;;;7376889;32;20108;-58
2023/07/16 14:57:20;;;;;;;5.90;2.05;;;24.10;99.90;;;;;;7370108;32;20139;-57
2023/07/16 15:01:22;;;;;;;3.62;2.05;;;24.10;99.50;;;;;;7375775;32;20796;-58
2023/07/16 15:05:24;;;;;;;5.28;2.50;;;23.90;99.50;;;;;;7379919;32;20102;-58
2023/07/16 15:09:26;;;;;;;5.20;2.42;;;23.50;99.90;;;;;;7369271;32;20121;-58
2023/07/16 15:13:28;;;;;;;4.72;2.28;;;23.30;99.90;;;;;;7373556;32;20125;-57
2023/07/16 15:17:30;;;;;;;5.03;2.65;;;23.10;99.90;;;;;;7367748;32;20100;-57
2023/07/16 15:21:32;;;;;;;5.78;2.20;;;22.90;99.90;;;;;;7367055;32;20106;-57
2023/07/16 15:25:34;;;;;;;5.57;2.35;;;22.90;99.60;;;;;;7373390;32;20141;-57
2023/07/16 15:29:36;;;;;;;5.97;2.95;;;22.90;99.30;;;;;;7374655;32;20814;-58
2023/07/16 15:33:39;;;;;;;6.03;2.67;;;23.10;99.90;;;;;;7376900;32;20111;-57
2023/07/16 15:37:41;;;;;;;4.78;2.83;;;23.40;99.90;;;;;;7379077;32;20106;-57
2023/07/16 15:41:43;;;;;;;6.60;2.90;;;23.60;99.90;;;;;;7377914;32;20482;-57
2023/07/16 15:45:45;;;;;;;5.53;2.75;;;23.50;99.40;;;;;;7376664;32;20103;-57
2023/07/16 15:49:46;;;;;;;7.12;3.00;;;23.40;99.20;;;;;;7374691;32;20130;-57
2023/07/16 15:53:54;;;;;;;6.45;3.00;;;23.20;98.80;;;;;;7383980;32;20145;-57
2023/07/16 15:57:58;;;;;;;5.93;3.03;;;23.10;98.90;;;;;;7379630;32;20531;-58
2023/07/16 16:01:59;;;;;;;5.85;2.72;;;23.10;99.20;;;;;;7373524;32;20151;-58
2023/07/16 16:06:01;;;;;;;8.60;3.00;;;23.10;99.80;;;;;;7383307;32;20111;-57
2023/07/16 16:10:04;;;;;;;5.95;3.08;;;23.20;99.60;;;;;;7372326;32;20469;-57
2023/07/16 16:14:08;;;;;;;5.80;2.80;;;23.20;99.80;;;;;;7376960;32;20433;-59
2023/07/16 16:18:12;;;;;;;10.02;3.28;;;23.30;99.60;;;;;;7382413;32;20147;-57
2023/07/16 16:22:14;;;;;;;6.90;3.72;;;23.30;99.60;;;;;;7375708;32;20119;-58
2023/07/16 16:26:16;;;;;;;5.90;3.10;;;23.30;98.30;;;;;;7369249;32;20110;-58
2023/07/16 16:30:18;;;;;;;8.27;3.12;;;23.40;98.60;;;;;;7371206;32;20123;-58
2023/07/16 16:34:20;;;;;;;7.57;3.15;;;23.30;99.90;;;;;;7382793;32;20167;-58
2023/07/16 16:38:22;;;;;;;7.40;2.70;;;23.40;99.70;;;;;;7371926;32;20110;-57
2023/07/16 16:42:24;;;;;;;4.90;2.85;;;23.50;98.60;;;;;;7375324;32;20502;-58
2023/07/16 16:46:26;;;;;;;6.72;2.72;;;23.60;98.00;;;;;;7371967;32;20134;-57
2023/07/16 16:50:29;;;;;;;7.03;3.10;;;23.60;99.40;;;;;;7371993;32;20346;-58
2023/07/16 16:54:30;;;;;;;5.05;3.08;;;23.50;99.60;;;;;;7369165;32;20111;-58
2023/07/16 16:58:33;;;;;;;4.72;2.80;;;23.50;98.60;;;;;;7376623;32;20580;-58
2023/07/16 17:02:35;;;;;;;5.68;2.80;;;23.50;98.90;;;;;;7381700;32;20555;-58
2023/07/16 17:06:37;;;;;;;6.20;3.00;;;23.50;99.30;;;;;;7374803;32;20616;-58
2023/07/16 17:10:43;;;;;;;5.53;3.13;;;23.50;98.30;;;;;;7369437;32;20125;-57
2023/07/16 17:14:46;;;;;;;6.10;3.60;;;23.30;99.30;;;;;;7371820;32;20111;-58
2023/07/16 17:18:48;;;;;;;4.62;2.70;;;23.20;99.80;;;;;;7370501;32;22191;-58
2023/07/16 17:22:50;;;;;;;6.37;2.62;;;23.10;98.40;;;;;;7372761;32;20590;-57
2023/07/16 17:26:52;;;;;;;6.68;3.05;;;23.00;99.00;;;;;;7381888;32;20095;-58
2023/07/16 17:30:59;;;;;;;4.47;2.75;;;22.80;98.50;;;;;;7368013;32;20119;-58
2023/07/16 17:35:01;;;;;;;;;;;22.90;98.20;;;;;;7376446;32;20130;-57
2023/07/16 17:39:03;;;;;;;7.90;2.70;;;22.80;98.20;;;;;;7370134;32;20006;-58
2023/07/16 17:43:04;;;;;;;5.57;2.97;;;22.90;99.50;;;;;;7379434;32;20106;-58
2023/07/16 17:47:06;;;;;;;6.18;2.40;;;22.80;98.10;;;;;;7376001;32;20099;-58
2023/07/16 17:51:08;;;;;;;8.43;3.00;;;22.90;97.70;;;;;;7372882;32;20217;-57
2023/07/16 17:55:10;;;;;;;8.18;2.87;;;22.80;98.60;;;;;;7375488;32;20226;-57
2023/07/16 17:59:13;;;;;;;6.95;2.95;;;22.90;97.60;;;;;;7374350;32;20386;-57
2023/07/16 18:03:15;;;;;;;8.35;3.00;;;22.90;97.70;;;;;;7380169;32;20095;-57
2023/07/16 18:07:21;;;;;;;7.47;3.20;;;22.70;97.80;;;;;;7380779;32;20094;-57
2023/07/16 18:11:23;;;;;;;5.25;2.62;;;22.50;98.20;;;;;;7380601;32;20205;-57
2023/07/16 18:15:25;;;;;;;9.00;3.85;;;22.50;98.90;;;;;;7366462;32;20589;-58
2023/07/16 18:19:27;;;;;;;7.62;2.92;;;22.40;98.60;;;;;;7378119;32;20260;-57
2023/07/16 18:23:30;;;;;;;5.12;2.42;;;22.30;99.50;;;;;;7375059;32;20096;-58
2023/07/16 18:27:33;;;;;;;7.82;3.22;;;22.30;98.90;;;;;;7369494;32;20104;-57
2023/07/16 18:31:35;;;;;;;7.87;3.28;;;22.20;98.80;;;;;;7378165;32;20770;-58
2023/07/16 18:35:37;;;;;;;5.97;3.15;;;22.10;99.20;;;;;;7378673;32;20205;-57
2023/07/16 18:39:39;;;;;;;6.57;2.90;;;22.00;99.90;;;;;;7376007;32;20099;-57
2023/07/16 18:43:41;;;;;;;6.97;2.92;;;22.10;99.70;;;;;;7373442;32;20104;-58
2023/07/16 18:47:43;;;;;;;6.70;2.90;;;22.00;99.90;;;;;;7366078;32;20111;-57
2023/07/16 18:51:45;;;;;;;8.70;2.70;;;21.80;99.90;;;;;;7377487;32;20760;-58
2023/07/16 18:55:47;;;;;;;5.50;2.92;;;21.80;99.90;;;;;;7372699;32;20455;-58
2023/07/16 18:59:49;;;;;;;9.80;2.83;;;21.70;99.90;;;;;;7372844;32;20194;-57
2023/07/16 19:03:51;;;;;;;6.95;2.90;;;21.70;99.90;;;;;;7374444;32;20137;-57
2023/07/16 19:07:53;;;;;;;5.53;2.55;;;21.50;99.90;;;;;;7370188;32;20528;-57
2023/07/16 19:11:55;;;;;;;8.75;3.00;;;21.40;99.90;;;;;;7370100;32;20655;-58
2023/07/16 19:15:57;;;;;;;9.30;2.65;;;21.30;99.90;;;;;;7376323;32;20572;-57
2023/07/16 19:19:59;;;;;;;5.95;3.28;;;21.20;99.90;;;;;;7364411;32;20190;-57
2023/07/16 19:24:02;;;;;;;5.65;2.70;;;21.10;99.90;;;;;;7370866;32;20547;-58
2023/07/16 19:28:04;;;;;;;5.50;3.20;;;21.00;99.90;;;;;;7372532;32;20125;-57
2023/07/16 19:32:06;;;;;;;6.07;2.72;;;20.80;99.90;;;;;;7361376;32;20111;-57
2023/07/16 19:36:09;;;;;;;6.28;2.90;;;20.90;99.90;;;;;;7376659;32;20206;-57
2023/07/16 19:40:15;;;;;;;;;;;20.70;99.90;;;;;;7366208;32;20106;-58
2023/07/16 19:44:17;;;;;;;6.90;2.97;;;20.60;99.90;;;;;;7369632;32;20034;-57
2023/07/16 19:48:19;;;;;;;10.57;2.85;;;20.50;99.90;;;;;;7370099;32;20674;-58
2023/07/16 19:52:21;;;;;;;5.10;2.53;;;20.40;99.90;;;;;;7370394;32;20126;-57
2023/07/16 19:56:22;;;;;;;6.10;2.90;;;20.20;99.90;;;;;;7376285;32;20154;-57
2023/07/16 20:00:24;;;;;;;6.35;2.97;;;20.20;99.90;;;;;;7378229;32;20193;-56
2023/07/16 20:04:29;;;;;;;7.47;3.25;;;20.00;99.90;;;;;;7379495;32;20186;-56
2023/07/16 20:08:31;;;;;;;9.18;3.78;;;19.90;99.90;;;;;;7376523;32;20107;-56
2023/07/16 20:12:33;;;;;;;8.10;3.28;;;19.60;99.90;;;;;;7373443;32;20142;-57
2023/07/16 20:16:35;;;;;;;11.77;3.30;;;19.50;99.90;;;;;;7373759;32;20122;-56
2023/07/16 20:20:37;;;;;;;7.65;3.42;;;19.30;99.90;;;;;;7375730;32;20102;-57
2023/07/16 20:24:39;;;;;;;11.15;3.35;;;19.00;99.90;;;;;;7378043;32;20130;-57
2023/07/16 20:28:41;;;;;;;6.80;3.50;;;18.90;99.90;;;;;;7373504;32;20488;-55
2023/07/16 20:32:43;;;;;;;9.13;4.25;;;18.70;99.90;;;;;;7376615;32;20095;-55
2023/07/16 20:36:45;;;;;;;8.13;3.75;;;18.50;99.90;;;;;;7376403;32;20512;-55
2023/07/16 20:40:47;;;;;;;5.85;3.53;;;18.40;99.90;;;;;;7371281;32;20252;-56
2023/07/16 20:45:11;;;;;;;7.35;3.65;;;18.30;99.90;;;;;;7382767;32;20124;-55
2023/07/16 20:49:13;;;;;;;7.30;3.53;;;18.20;99.90;;;;;;7382689;32;20130;-56
2023/07/16 20:53:16;;;;;;;7.37;3.30;;;18.20;99.90;;;;;;7380104;32;20447;-55
2023/07/16 20:57:18;;;;;;;9.63;3.83;;;18.10;99.90;;;;;;7370802;32;20264;-55
2023/07/16 21:01:20;;;;;;;9.57;4.20;;;18.00;99.90;;;;;;7374925;32;20537;-55